Time;durP1;ratioP1;P1;durP2;ratioP2;P2;SDS_P1;SDS_P2;PMS_P1;PMS_P2;Temp;Humidity;BMP_temperature;BMP_pressure;BME280_temperature;BME280_humidity;BME280_pressure;Samples;Min_cycle;Max_cycle;Signal;HPM_P1;HPM_P2
2022/04/21 00:00:48;;;;;;;16.33;14.43;;;;;;;3.70;99.11;99683.56;6156838;23;20140;-82
2022/04/21 00:03:13;;;;;;;15.63;13.93;;;;;;;3.68;97.35;99680.44;6156244;23;20191;-82
2022/04/21 00:05:39;;;;;;;14.82;13.32;;;;;;;3.68;97.50;99685.91;6157387;23;20424;-82
2022/04/21 00:08:04;;;;;;;16.77;14.90;;;;;;;3.61;99.50;99680.47;6157391;23;20313;-82
2022/04/21 00:10:30;;;;;;;16.83;13.95;;;;;;;3.57;98.86;99682.44;6182745;23;20021;-82
2022/04/21 00:12:56;;;;;;;16.05;14.27;;;;;;;3.60;99.21;99673.41;6183377;23;20088;-82
2022/04/21 00:15:22;;;;;;;17.33;14.27;;;;;;;3.50;100.00;99685.22;6156243;23;20019;-82
2022/04/21 00:17:48;;;;;;;16.50;14.30;;;;;;;3.49;99.34;99688.34;6157250;23;20019;-82
2022/04/21 00:20:14;;;;;;;16.05;14.35;;;;;;;3.47;98.94;99680.53;6183399;23;20032;-82
2022/04/21 00:25:26;;;;;;;15.30;13.68;;;;;;;3.40;99.40;99664.09;6184232;23;20016;-82
2022/04/21 00:27:52;;;;;;;16.85;14.50;;;;;;;3.36;100.00;99673.53;6157083;23;20144;-82
2022/04/21 00:30:18;;;;;;;19.38;15.82;;;;;;;3.52;100.00;99680.09;6182671;23;20056;-82
2022/04/21 00:32:44;;;;;;;17.10;14.50;;;;;;;3.59;100.00;99676.56;6156870;23;20445;-82
2022/04/21 00:35:13;;;;;;;17.25;14.82;;;;;;;3.55;100.00;99675.81;6155952;23;20011;-82
2022/04/21 00:37:47;;;;;;;17.45;15.63;;;;;;;3.50;100.00;99674.25;6182533;23;20009;-82
2022/04/21 00:40:13;;;;;;;18.25;16.00;;;;;;;3.55;100.00;99682.06;6156411;23;20021;-82
2022/04/21 00:42:38;;;;;;;17.73;15.82;;;;;;;3.61;100.00;99677.72;6182845;23;20016;-82
2022/04/21 00:45:04;;;;;;;17.63;15.63;;;;;;;3.56;100.00;99678.13;6183301;23;20013;-82
2022/04/21 00:47:31;;;;;;;17.38;14.82;;;;;;;3.54;100.00;99683.25;6181546;23;20427;-82
2022/04/21 00:49:56;;;;;;;17.52;14.50;;;;;;;3.53;99.14;99667.97;6183075;23;20043;-82
2022/04/21 00:52:23;;;;;;;16.88;14.77;;;;;;;3.49;99.64;99667.19;6181691;23;20442;-82
2022/04/21 00:54:48;;;;;;;17.00;15.18;;;;;;;3.51;100.00;99669.56;6182555;23;20041;-82
2022/04/21 00:57:14;;;;;;;17.98;16.08;;;;;;;3.47;100.00;99658.59;6155858;23;20464;-82
2022/04/21 00:59:40;;;;;;;17.52;15.45;;;;;;;3.54;100.00;99657.78;6156743;23;20077;-82
2022/04/21 01:04:51;;;;;;;17.00;14.73;;;;;;;3.58;100.00;99662.06;6122963;23;20017;-88
2022/04/21 01:07:16;;;;;;;19.02;15.23;;;;;;;3.47;100.00;99664.09;6124100;23;20089;-90
2022/04/21 01:09:42;;;;;;;17.83;16.02;;;;;;;3.45;100.00;99658.22;6123692;23;20061;-90
2022/04/21 01:12:11;;;;;;;17.65;15.32;;;;;;;3.40;100.00;99661.34;6123368;23;20017;-91
2022/04/21 01:14:38;;;;;;;17.15;15.25;;;;;;;3.43;100.00;99663.31;6124254;23;20036;-89
2022/04/21 01:17:05;;;;;;;16.58;14.38;;;;;;;3.55;100.00;99654.66;6123882;23;20084;-89
2022/04/21 01:19:30;;;;;;;16.60;14.60;;;;;;;3.49;100.00;99645.25;6098176;23;20499;-88
2022/04/21 01:21:56;;;;;;;16.83;14.45;;;;;;;3.51;99.59;99648.41;6123821;23;20033;-90
2022/04/21 01:24:21;;;;;;;18.88;15.55;;;;;;;3.43;100.00;99649.63;6124428;23;20045;-89
2022/04/21 01:26:47;;;;;;;18.02;15.32;;;;;;;3.48;100.00;99649.19;6124328;23;20022;-89
2022/04/21 01:29:13;;;;;;;16.95;15.15;;;;;;;3.48;100.00;99648.41;6097313;23;20017;-89
2022/04/21 01:31:39;;;;;;;17.40;15.43;;;;;;;3.50;100.00;99649.56;6098646;23;20006;-89
2022/04/21 01:34:05;;;;;;;18.63;15.60;;;;;;;3.52;100.00;99647.19;6123154;23;20479;-90
2022/04/21 01:36:30;;;;;;;17.73;15.70;;;;;;;3.53;100.00;99642.50;6097969;23;20017;-89
2022/04/21 01:41:40;;;;;;;;;;;;;;;3.40;100.00;99636.69;6124080;23;20066;-90
2022/04/21 01:44:05;;;;;;;16.80;14.90;;;;;;;3.38;100.00;99657.47;6123064;23;19913;-89
2022/04/21 01:46:31;;;;;;;18.13;16.10;;;;;;;3.42;100.00;99650.00;6124230;23;20081;-88
2022/04/21 01:48:56;;;;;;;16.92;15.13;;;;;;;3.39;100.00;99635.13;6123538;23;20017;-90
2022/04/21 01:51:22;;;;;;;16.95;15.10;;;;;;;3.43;100.00;99641.38;6123744;23;20333;-90
2022/04/21 01:53:48;;;;;;;18.35;15.27;;;;;;;3.46;100.00;99642.53;6123479;23;20040;-90
2022/04/21 01:56:14;;;;;;;17.33;15.25;;;;;;;3.41;100.00;99638.25;6123970;23;20444;-89
2022/04/21 01:58:40;;;;;;;17.05;15.02;;;;;;;3.36;100.00;99635.16;6124368;23;20006;-90
2022/04/21 02:01:06;;;;;;;22.50;16.58;;;;;;;3.33;100.00;99636.72;6123941;23;20044;-89
2022/04/21 02:03:32;;;;;;;18.90;16.65;;;;;;;3.20;100.00;99632.84;6101666;23;20014;-90
2022/04/21 02:05:58;;;;;;;18.20;15.57;;;;;;;3.18;100.00;99629.72;6123699;23;20021;-89
2022/04/21 02:08:24;;;;;;;18.67;16.10;;;;;;;3.11;100.00;99621.53;6123813;23;20029;-89
2022/04/21 02:10:50;;;;;;;18.02;15.43;;;;;;;3.14;100.00;99626.22;6123793;23;20468;-90
2022/04/21 02:13:15;;;;;;;17.05;15.25;;;;;;;3.00;100.00;99618.03;6123342;23;20006;-89
2022/04/21 02:15:41;;;;;;;17.15;15.35;;;;;;;3.03;100.00;99623.53;6124650;23;20125;-88
2022/04/21 02:18:07;;;;;;;17.10;15.30;;;;;;;3.06;100.00;99610.97;6124849;23;20325;-90
2022/04/21 02:20:32;;;;;;;16.52;14.75;;;;;;;3.06;100.00;99616.47;6098712;23;19998;-90
2022/04/21 02:22:58;;;;;;;16.73;14.88;;;;;;;3.04;100.00;99610.59;6123969;23;20033;-90
2022/04/21 02:25:23;;;;;;;19.30;16.40;;;;;;;2.83;100.00;99602.44;6124918;23;20006;-90
2022/04/21 02:27:49;;;;;;;19.10;15.25;;;;;;;2.85;100.00;99603.59;6124905;23;20006;-90
2022/04/21 02:30:17;;;;;;;17.17;15.00;;;;;;;2.79;100.00;99595.00;6124133;23;20024;-90
2022/04/21 02:32:43;;;;;;;18.17;14.75;;;;;;;2.71;100.00;99601.66;6097158;23;20005;-90
2022/04/21 02:35:10;;;;;;;19.38;14.93;;;;;;;2.63;100.00;99588.41;6097755;23;20538;-90
2022/04/21 02:37:36;;;;;;;17.20;15.20;;;;;;;2.56;100.00;99597.41;6122816;23;20002;-82
2022/04/21 02:40:03;;;;;;;17.40;15.45;;;;;;;2.65;100.00;99595.03;6123780;23;20357;-82
2022/04/21 02:42:29;;;;;;;18.00;14.75;;;;;;;2.70;100.00;99596.59;6097071;23;20042;-82
2022/04/21 02:44:54;;;;;;;17.55;15.63;;;;;;;2.79;100.00;99597.75;6123159;23;20021;-82
2022/04/21 02:47:20;;;;;;;19.35;15.15;;;;;;;2.79;100.00;99583.28;6125521;23;20014;-82
2022/04/21 02:49:46;;;;;;;16.88;15.05;;;;;;;2.90;100.00;99596.94;6125600;23;20018;-82
2022/04/21 02:52:12;;;;;;;18.52;15.23;;;;;;;2.83;100.00;99595.78;6125329;23;20432;-82
2022/04/21 02:57:23;;;;;;;16.70;14.73;;;;;;;2.76;100.00;99593.06;6102516;23;20097;-82
2022/04/21 02:59:51;;;;;;;16.17;14.48;;;;;;;2.61;100.00;99583.31;6099475;23;20006;-82
2022/04/21 03:02:18;;;;;;;20.40;15.65;;;;;;;2.60;100.00;99584.50;6123641;23;20022;-82
2022/04/21 03:04:44;;;;;;;17.05;14.70;;;;;;;2.53;100.00;99589.97;6123374;23;20026;-82
2022/04/21 03:07:10;;;;;;;20.83;16.25;;;;;;;2.48;100.00;99587.63;6125160;23;20006;-82
2022/04/21 03:09:35;;;;;;;18.60;16.52;;;;;;;2.47;100.00;99586.06;6098635;23;20018;-83
2022/04/21 03:12:02;;;;;;;20.45;16.52;;;;;;;2.40;100.00;99579.81;6124669;23;20044;-82
2022/04/21 03:14:27;;;;;;;21.70;17.52;;;;;;;2.36;100.00;99574.34;6123671;23;20051;-89
2022/04/21 03:16:53;;;;;;;19.42;17.27;;;;;;;2.53;100.00;99581.78;6123636;23;20014;-90
2022/04/21 03:19:18;;;;;;;21.75;16.55;;;;;;;2.58;100.00;99586.84;6123650;23;20510;-89
2022/04/21 03:24:29;;;;;;;18.35;16.10;;;;;;;2.65;100.00;99583.31;6124714;23;20679;-89
2022/04/21 03:26:55;;;;;;;18.08;16.08;;;;;;;2.61;100.00;99568.84;6125647;23;20456;-90
2022/04/21 03:29:21;;;;;;;18.50;16.35;;;;;;;2.51;100.00;99564.94;6123775;23;20018;-90
2022/04/21 03:31:48;;;;;;;18.88;15.70;;;;;;;2.40;100.00;99555.97;6124791;23;20044;-89
2022/04/21 03:34:15;;;;;;;16.17;14.02;;;;;;;2.29;100.00;99569.69;6123201;23;20078;-82
2022/04/21 03:36:50;;;;;;;15.15;13.07;;;;;;;2.21;100.00;99583.75;6124823;23;20006;-82
2022/04/21 03:39:18;;;;;;;14.10;12.60;;;;;;;2.05;100.00;99581.41;6124072;23;20100;-82
2022/04/21 03:41:43;;;;;;;14.63;12.52;;;;;;;2.03;100.00;99582.97;6123476;23;20013;-82
2022/04/21 03:44:11;;;;;;;15.45;12.63;;;;;;;2.05;100.00;99570.47;6122878;23;20014;-82
2022/04/21 03:46:38;;;;;;;16.50;14.20;;;;;;;2.11;100.00;99573.59;6125006;23;20400;-82
2022/04/21 03:49:07;;;;;;;21.15;17.60;;;;;;;2.12;100.00;99569.69;6122558;23;20093;-82
2022/04/21 03:51:33;;;;;;;19.27;16.55;;;;;;;2.18;100.00;99579.06;6122722;23;20037;-83
2022/04/21 03:53:59;;;;;;;23.35;17.83;;;;;;;2.28;100.00;99578.28;6122666;23;20061;-87
2022/04/21 03:56:26;;;;;;;22.20;18.50;;;;;;;2.28;100.00;99561.84;6123185;23;20010;-87
2022/04/21 03:58:52;;;;;;;21.17;17.95;;;;;;;2.38;100.00;99580.22;6122609;23;20017;-87
2022/04/21 04:01:18;;;;;;;22.67;18.27;;;;;;;2.35;100.00;99583.72;6122234;23;20506;-88
2022/04/21 04:03:44;;;;;;;22.35;18.35;;;;;;;2.27;100.00;99577.50;6124301;23;20089;-88
2022/04/21 04:11:39;;;;;;;21.08;17.13;;;;;;;2.21;100.00;99575.56;6123287;23;20376;-89
2022/04/21 04:14:07;;;;;;;19.92;16.63;;;;;;;2.27;100.00;99585.69;6122856;23;20013;-88
2022/04/21 04:16:37;;;;;;;19.77;17.17;;;;;;;2.24;100.00;99572.81;6124459;23;20036;-88
2022/04/21 04:19:05;;;;;;;19.13;16.65;;;;;;;2.29;100.00;99586.09;6124900;23;20062;-89
2022/04/21 04:21:34;;;;;;;20.10;17.02;;;;;;;2.29;100.00;99597.06;6122191;23;20045;-90
2022/04/21 04:24:00;;;;;;;21.83;17.75;;;;;;;2.28;100.00;99591.97;6122301;23;20002;-88
2022/04/21 04:26:26;;;;;;;18.42;15.20;;;;;;;2.19;100.00;99586.88;6123819;23;20021;-89
2022/04/21 04:28:52;;;;;;;18.83;13.93;;;;;;;2.13;100.00;99593.13;6121851;23;20092;-88
2022/04/21 04:31:17;;;;;;;16.40;13.52;;;;;;;2.14;100.00;99594.72;6123978;23;20041;-87
2022/04/21 04:33:43;;;;;;;15.23;13.35;;;;;;;2.20;100.00;99599.38;6124168;23;20337;-89
2022/04/21 04:36:10;;;;;;;15.50;13.65;;;;;;;2.26;100.00;99608.00;6124121;23;20000;-88
2022/04/21 04:38:39;;;;;;;18.45;14.98;;;;;;;2.34;100.00;99604.09;6123373;23;20586;-87
2022/04/21 04:43:49;;;;;;;19.00;16.13;;;;;;;2.49;100.00;99602.91;6123652;23;20890;-87
2022/04/21 04:48:58;;;;;;;19.20;16.08;;;;;;;2.58;100.00;99597.81;6123250;23;20040;-89
2022/04/21 04:51:26;;;;;;;20.80;17.20;;;;;;;2.64;100.00;99595.44;6122872;23;20440;-82
2022/04/21 04:53:53;;;;;;;18.67;15.65;;;;;;;2.78;100.00;99589.94;6122297;23;20532;-83
2022/04/21 04:56:21;;;;;;;17.23;14.98;;;;;;;2.93;100.00;99601.63;6122777;23;20014;-81
2022/04/21 04:58:47;;;;;;;18.75;16.75;;;;;;;3.10;100.00;99600.78;6122991;23;20014;-82
2022/04/21 05:01:12;;;;;;;20.15;17.98;;;;;;;3.25;100.00;99599.53;6094841;23;20061;-83
2022/04/21 05:03:39;;;;;;;21.55;17.25;;;;;;;3.42;100.00;99587.72;6120044;23;20030;-83
2022/04/21 05:06:05;;;;;;;21.85;17.27;;;;;;;3.71;100.00;99602.84;6121605;23;20017;-82
2022/04/21 05:08:30;;;;;;;20.90;16.35;;;;;;;3.98;100.00;99594.81;6121402;23;20010;-83
2022/04/21 05:10:56;;;;;;;19.73;16.00;;;;;;;4.12;100.00;99588.44;6117996;23;20068;-83
2022/04/21 05:13:21;;;;;;;18.10;15.43;;;;;;;4.33;100.00;99588.25;6120846;23;20038;-83
2022/04/21 05:15:48;;;;;;;18.23;16.25;;;;;;;4.58;100.00;99585.28;6120719;23;20388;-83
2022/04/21 05:18:14;;;;;;;17.88;15.40;;;;;;;4.79;100.00;99587.03;6118488;23;20471;-85
2022/04/21 05:20:40;;;;;;;19.15;16.45;;;;;;;4.97;99.58;99590.38;6120789;23;20006;-83
2022/04/21 05:23:06;;;;;;;19.98;17.27;;;;;;;5.12;98.46;99589.81;6121980;23;20018;-84
2022/04/21 05:25:36;;;;;;;18.17;16.30;;;;;;;5.19;97.73;99597.19;6095612;23;20490;-84
2022/04/21 05:28:02;;;;;;;18.17;16.20;;;;;;;5.28;97.02;99597.47;6121936;23;20018;-82
2022/04/21 05:33:15;;;;;;;19.45;17.17;;;;;;;5.56;96.60;99597.09;6122492;23;20066;-82
2022/04/21 05:35:41;;;;;;;18.90;16.88;;;;;;;5.71;95.98;99594.13;6121411;23;20340;-82
2022/04/21 05:38:07;;;;;;;19.90;16.35;;;;;;;5.83;94.84;99607.31;6121530;23;20021;-82
2022/04/21 05:40:32;;;;;;;19.13;17.00;;;;;;;5.89;95.05;99594.69;6119482;23;20010;-82
2022/04/21 05:43:01;;;;;;;20.13;16.85;;;;;;;6.13;94.89;99601.81;6119981;23;20014;-84
2022/04/21 05:45:27;;;;;;;19.00;17.00;;;;;;;6.38;95.97;99593.13;6120892;23;20088;-82
2022/04/21 05:47:53;;;;;;;17.00;15.30;;;;;;;6.59;95.59;99598.28;6122015;23;20021;-82
2022/04/21 05:50:19;;;;;;;19.48;16.70;;;;;;;6.77;95.98;99598.75;6122510;23;20013;-83
2022/04/21 05:52:46;;;;;;;19.10;17.08;;;;;;;6.91;96.06;99594.94;6122843;23;20496;-81
2022/04/21 05:55:13;;;;;;;22.77;17.70;;;;;;;7.05;95.40;99589.16;6120213;23;20009;-85
2022/04/21 05:57:40;;;;;;;19.70;17.70;;;;;;;7.15;94.79;99576.34;6121342;23;20088;-84
2022/04/21 06:00:07;;;;;;;19.13;17.13;;;;;;;7.43;93.54;99598.63;6121748;23;20017;-84
2022/04/21 06:02:37;;;;;;;19.48;16.70;;;;;;;7.53;92.88;99596.81;6126028;23;20028;-83
2022/04/21 06:05:04;;;;;;;18.60;16.60;;;;;;;7.50;91.69;99592.94;6125830;23;20014;-84
2022/04/21 06:07:30;;;;;;;19.30;17.02;;;;;;;7.40;91.21;99588.41;6152604;23;20063;-82
2022/04/21 06:09:55;;;;;;;18.17;16.38;;;;;;;7.47;92.09;99574.50;6125112;23;20081;-82
2022/04/21 06:12:23;;;;;;;20.25;18.02;;;;;;;7.71;91.15;99582.66;6152464;23;20020;-82
2022/04/21 06:14:48;;;;;;;25.17;18.58;;;;;;;7.91;89.68;99583.38;6151152;23;20360;-81
2022/04/21 06:17:14;;;;;;;21.10;18.80;;;;;;;8.03;88.57;99582.69;6150899;23;20020;-81
2022/04/21 06:19:39;;;;;;;18.20;16.30;;;;;;;8.23;87.08;99577.84;6152673;23;20074;-81
2022/04/21 06:22:05;;;;;;;17.73;15.82;;;;;;;8.41;87.14;99578.22;6152687;23;20013;-81
2022/04/21 06:24:31;;;;;;;18.25;15.73;;;;;;;8.59;83.78;99580.53;6153214;23;20072;-81
2022/04/21 06:26:56;;;;;;;16.42;14.70;;;;;;;8.68;84.06;99575.16;6153059;23;20338;-81
2022/04/21 06:29:22;;;;;;;16.75;15.05;;;;;;;8.88;83.61;99583.31;6152782;23;20010;-79
2022/04/21 06:31:47;;;;;;;17.00;15.30;;;;;;;8.94;83.61;99575.28;6153413;23;20381;-80
2022/04/21 06:34:13;;;;;;;17.65;15.85;;;;;;;9.06;82.80;99578.06;6152976;23;20068;-79
2022/04/21 06:36:38;;;;;;;16.13;14.55;;;;;;;9.09;82.01;99579.19;6153171;23;20005;-80
2022/04/21 06:39:04;;;;;;;16.58;14.80;;;;;;;9.00;81.03;99585.38;6153223;23;20064;-80
2022/04/21 06:41:29;;;;;;;15.95;14.43;;;;;;;8.96;81.97;99579.16;6153200;23;20018;-79
2022/04/21 06:49:23;;;;;;;;;;;;;;;9.24;82.32;99577.56;6153417;23;20010;-89
2022/04/21 06:51:48;;;;;;;17.10;15.30;;;;;;;9.41;82.18;99578.28;6153452;23;19908;-89
2022/04/21 06:54:14;;;;;;;16.60;15.00;;;;;;;9.56;81.15;99580.19;6153073;23;20321;-88
2022/04/21 06:56:40;;;;;;;15.80;14.20;;;;;;;9.56;79.49;99571.09;6153347;23;20482;-88
2022/04/21 06:59:05;;;;;;;15.77;13.95;;;;;;;9.57;78.42;99572.66;6127115;23;20002;-91
2022/04/21 07:01:31;;;;;;;20.00;15.48;;;;;;;9.74;78.00;99565.81;6153023;23;20070;-89
2022/04/21 07:03:57;;;;;;;15.52;14.13;;;;;;;9.56;79.16;99554.50;6127559;23;20044;-81
2022/04/21 07:06:22;;;;;;;16.17;14.50;;;;;;;9.60;79.97;99555.94;6123695;23;20072;-80
2022/04/21 07:08:48;;;;;;;16.08;14.43;;;;;;;9.61;80.47;99551.97;6123633;23;20009;-81
2022/04/21 07:11:15;;;;;;;15.30;13.80;;;;;;;9.91;79.95;99563.72;6123033;23;20077;-81
2022/04/21 07:13:41;;;;;;;15.35;13.85;;;;;;;9.98;78.59;99561.50;6122293;23;20006;-80
2022/04/21 07:16:07;;;;;;;13.80;12.40;;;;;;;10.33;74.63;99564.34;6123920;23;20014;-81
2022/04/21 07:18:32;;;;;;;15.45;13.18;;;;;;;10.29;74.19;99568.03;6123503;23;20129;-81
2022/04/21 07:21:00;;;;;;;12.85;11.65;;;;;;;10.60;72.64;99581.25;6122128;23;20021;-81
2022/04/21 07:23:26;;;;;;;12.25;11.05;;;;;;;10.61;70.84;99577.25;6123499;23;20018;-80
2022/04/21 07:25:51;;;;;;;12.52;11.20;;;;;;;10.57;70.78;99571.06;6122048;23;20336;-80
2022/04/21 07:28:17;;;;;;;11.52;10.43;;;;;;;11.04;68.18;99574.53;6121535;23;20021;-81
2022/04/21 07:30:43;;;;;;;12.07;10.88;;;;;;;11.28;69.33;99579.66;6123038;23;20017;-80
2022/04/21 07:33:08;;;;;;;12.85;11.60;;;;;;;11.35;68.60;99580.16;6125394;23;20084;-81
2022/04/21 07:35:34;;;;;;;11.55;10.45;;;;;;;11.47;68.04;99575.75;6125151;23;20010;-81
2022/04/21 07:38:00;;;;;;;11.85;10.32;;;;;;;11.55;68.24;99565.94;6125350;23;20008;-80
2022/04/21 07:40:25;;;;;;;11.32;10.23;;;;;;;11.38;68.11;99578.47;6123305;23;20009;-81
2022/04/21 07:42:51;;;;;;;12.52;11.32;;;;;;;11.40;68.95;99576.81;6125543;23;20084;-81
2022/04/21 07:45:17;;;;;;;12.60;11.50;;;;;;;11.55;68.81;99583.38;6125049;23;20088;-81
2022/04/21 07:47:42;;;;;;;11.45;10.35;;;;;;;11.66;66.84;99566.28;6125429;23;20017;-81
2022/04/21 07:50:08;;;;;;;12.07;10.77;;;;;;;11.77;66.94;99569.44;6123383;23;20016;-81
2022/04/21 07:55:23;;;;;;;11.88;10.68;;;;;;;11.86;66.91;99558.38;6124930;23;20089;-81
2022/04/21 07:57:49;;;;;;;12.65;11.30;;;;;;;12.00;65.75;99566.16;6125231;23;20014;-81
2022/04/21 08:00:16;;;;;;;12.15;10.95;;;;;;;12.02;66.67;99560.91;6125056;23;20021;-80
2022/04/21 08:02:43;;;;;;;12.40;10.82;;;;;;;12.27;64.30;99564.69;6124794;23;20061;-80
2022/04/21 08:05:13;;;;;;;11.70;10.50;;;;;;;12.59;63.14;99561.34;6125125;23;20436;-81
2022/04/21 08:07:39;;;;;;;9.88;8.85;;;;;;;12.89;59.49;99554.88;6124856;23;20089;-81
2022/04/21 08:10:06;;;;;;;8.68;7.82;;;;;;;13.02;57.10;99552.69;6123659;23;20038;-81
2022/04/21 08:12:39;;;;;;;8.18;7.38;;;;;;;12.59;54.20;99570.47;6123261;23;20006;-80
2022/04/21 08:15:26;;;;;;;7.30;6.57;;;;;;;12.76;53.76;99573.72;6125136;23;20401;-81
2022/04/21 08:17:52;;;;;;;8.55;7.75;;;;;;;12.82;53.87;99571.13;6125603;23;20093;-81
2022/04/21 08:20:18;;;;;;;7.95;6.80;;;;;;;12.85;53.08;99576.53;6125220;23;20100;-81
2022/04/21 08:22:47;;;;;;;8.05;7.35;;;;;;;12.79;51.88;99567.22;6125297;23;20421;-81
2022/04/21 08:33:26;;;;;;;7.97;7.25;;;;;;;13.47;47.78;99570.59;6124495;23;20057;-80
2022/04/21 08:35:57;;;;;;;6.53;5.93;;;;;;;13.43;47.69;99567.19;6123446;23;20014;-80
2022/04/21 08:38:23;;;;;;;7.90;7.10;;;;;;;13.06;48.46;99574.81;6123230;23;20010;-89
2022/04/21 08:40:56;;;;;;;8.40;7.05;;;;;;;12.94;49.71;99579.28;6125059;23;20661;-80
2022/04/21 08:43:27;;;;;;;9.18;7.93;;;;;;;12.92;50.39;99581.78;6122827;23;20014;-80
2022/04/21 08:45:53;;;;;;;7.95;7.15;;;;;;;12.95;49.36;99572.50;6124964;23;20073;-80
2022/04/21 08:48:23;;;;;;;8.43;7.55;;;;;;;13.11;49.82;99581.78;6124446;23;20069;-80
2022/04/21 08:50:50;;;;;;;7.82;6.70;;;;;;;13.34;49.11;99550.53;6123034;23;20448;-80
2022/04/21 08:53:19;;;;;;;7.55;6.85;;;;;;;13.73;48.76;99559.84;6124854;23;20013;-80
2022/04/21 08:55:45;;;;;;;7.03;6.32;;;;;;;14.19;47.01;99568.81;6098851;23;20018;-81
2022/04/21 08:58:14;;;;;;;7.53;6.63;;;;;;;14.10;45.63;99554.88;6124781;23;20690;-79
2022/04/21 09:00:41;;;;;;;7.63;6.20;;;;;;;13.48;47.94;99572.94;6123200;23;20010;-80
2022/04/21 09:03:08;;;;;;;6.53;5.88;;;;;;;13.69;47.65;99564.81;6124402;23;20077;-80
2022/04/21 09:05:34;;;;;;;8.40;6.68;;;;;;;13.81;46.25;99553.47;6122481;23;20014;-80
2022/04/21 09:08:02;;;;;;;7.20;6.50;;;;;;;14.16;45.50;99548.19;6124620;23;20024;-80
2022/04/21 09:10:29;;;;;;;7.13;6.32;;;;;;;14.57;45.31;99562.53;6123942;23;20097;-80
2022/04/21 09:13:04;;;;;;;7.00;6.30;;;;;;;14.87;44.35;99541.84;6124294;23;20333;-80
2022/04/21 09:15:36;;;;;;;6.22;5.63;;;;;;;15.40;43.19;99550.19;6124189;23;20014;-80
2022/04/21 09:18:07;;;;;;;6.78;6.07;;;;;;;14.99;42.26;99545.63;6124842;23;20020;-90
2022/04/21 09:20:35;;;;;;;6.25;5.65;;;;;;;14.84;42.79;99557.53;6098545;23;20106;-90
2022/04/21 09:23:11;;;;;;;6.65;6.00;;;;;;;15.45;43.60;99549.50;6123005;23;20356;-91
2022/04/21 09:25:47;;;;;;;6.68;5.97;;;;;;;15.74;41.61;99559.94;6098002;23;20161;-90
2022/04/21 09:28:24;;;;;;;6.40;5.80;;;;;;;15.91;41.66;99549.00;6124312;23;20021;-90
2022/04/21 09:30:51;;;;;;;6.70;6.00;;;;;;;16.13;41.25;99546.56;6122950;23;20022;-90
2022/04/21 09:33:40;;;;;;;6.15;5.55;;;;;;;15.93;40.21;99538.13;6124307;23;20009;-89
2022/04/21 09:36:06;;;;;;;6.63;6.00;;;;;;;15.93;40.95;99549.31;6124496;23;20020;-90
2022/04/21 09:38:35;;;;;;;6.50;5.90;;;;;;;15.85;41.76;99544.09;6124128;23;20002;-90
2022/04/21 09:41:10;;;;;;;6.07;5.45;;;;;;;15.83;40.87;99543.81;6123011;23;20010;-91
2022/04/21 09:43:41;;;;;;;6.97;5.30;;;;;;;15.68;41.01;99540.28;6124119;23;20010;-90
2022/04/21 09:46:21;;;;;;;5.93;5.32;;;;;;;15.19;41.42;99534.56;6123107;23;20014;-90
2022/04/21 09:48:51;;;;;;;8.60;5.40;;;;;;;15.43;42.25;99552.03;6123922;23;20020;-89
2022/04/21 09:51:22;;;;;;;5.60;5.00;;;;;;;15.64;41.04;99542.50;6124257;23;20018;-90
2022/04/21 09:53:53;;;;;;;6.13;5.20;;;;;;;15.57;40.98;99542.88;6123920;23;20096;-90
2022/04/21 09:56:39;;;;;;;6.13;5.53;;;;;;;15.65;41.49;99535.63;6125117;23;20324;-91
2022/04/21 09:59:10;;;;;;;7.07;5.82;;;;;;;15.27;41.07;99539.31;6124013;23;20100;-90
2022/04/21 10:01:38;;;;;;;5.88;5.28;;;;;;;14.93;41.56;99543.50;6123944;23;20013;-89
2022/04/21 10:04:13;;;;;;;5.68;5.00;;;;;;;14.68;41.54;99544.00;6122340;23;20013;-90
2022/04/21 10:06:39;;;;;;;5.50;5.00;;;;;;;14.58;40.62;99536.94;6124122;23;20018;-90
2022/04/21 10:09:06;;;;;;;5.93;5.10;;;;;;;14.73;41.56;99534.97;6123867;23;20010;-91
2022/04/21 10:11:31;;;;;;;5.90;5.30;;;;;;;14.71;41.33;99536.69;6124038;23;20010;-90
2022/04/21 10:13:57;;;;;;;6.85;5.80;;;;;;;14.84;41.11;99537.97;6124355;23;20024;-90
2022/04/21 10:16:24;;;;;;;7.45;5.38;;;;;;;14.92;41.37;99525.19;6123806;23;20014;-80
2022/04/21 10:18:53;;;;;;;6.40;5.68;;;;;;;15.12;42.13;99524.56;6122288;23;20006;-80
2022/04/21 10:21:54;;;;;;;6.28;5.43;;;;;;;15.14;41.56;99518.47;6122567;23;20018;-80
2022/04/21 10:24:24;;;;;;;8.57;5.70;;;;;;;15.21;41.44;99523.66;6118052;23;20356;-80
2022/04/21 10:26:50;;;;;;;7.50;5.78;;;;;;;15.17;41.75;99512.69;6124125;23;20017;-80
2022/04/21 10:29:17;;;;;;;5.68;5.18;;;;;;;15.07;41.58;99496.50;6123594;23;20010;-80
2022/04/21 10:32:03;;;;;;;6.00;5.40;;;;;;;15.34;41.47;99504.59;6123997;23;20073;-80
2022/04/21 10:34:31;;;;;;;7.50;5.63;;;;;;;15.52;40.85;99509.25;6123356;23;20212;-80
2022/04/21 10:37:10;;;;;;;6.05;5.45;;;;;;;15.26;40.98;99501.44;6124109;23;20097;-80
2022/04/21 10:39:35;;;;;;;6.10;5.50;;;;;;;15.20;40.73;99500.56;6123634;23;20089;-79
2022/04/21 10:42:17;;;;;;;6.95;5.43;;;;;;;15.18;41.89;99503.06;6123961;23;20435;-79
2022/04/21 10:44:43;;;;;;;5.35;4.85;;;;;;;15.60;41.24;99496.44;6123152;23;20463;-81
2022/04/21 10:47:41;;;;;;;6.00;4.88;;;;;;;16.00;39.39;99504.16;6123702;23;20010;-81
2022/04/21 10:50:16;;;;;;;6.35;5.13;;;;;;;16.23;39.55;99492.00;6123427;23;20436;-79
2022/04/21 10:57:55;;;;;;;5.57;5.00;;;;;;;16.57;39.44;99491.19;6122726;23;20018;-79
2022/04/21 11:00:26;;;;;;;7.82;5.25;;;;;;;16.52;40.34;99489.06;6122141;23;20017;-80
2022/04/21 11:03:01;;;;;;;6.38;5.05;;;;;;;16.45;40.02;99488.72;6120692;23;20081;-81
2022/04/21 11:05:33;;;;;;;5.63;5.13;;;;;;;16.16;40.31;99456.03;6122633;23;20357;-78
2022/04/21 11:08:00;;;;;;;6.38;5.05;;;;;;;16.12;40.40;99472.28;6123995;23;20021;-80
2022/04/21 11:10:38;;;;;;;5.65;5.05;;;;;;;16.49;40.72;99472.47;6097111;23;20463;-79
2022/04/21 11:13:11;;;;;;;5.63;4.68;;;;;;;16.73;39.59;99471.03;6124613;23;20036;-91
2022/04/21 11:15:44;;;;;;;5.57;5.07;;;;;;;17.16;39.48;99471.19;6122493;23;20498;-88
2022/04/21 11:18:11;;;;;;;6.00;5.20;;;;;;;17.44;37.98;99477.03;6124688;23;20068;-87
2022/04/21 11:20:42;;;;;;;5.93;5.25;;;;;;;17.51;37.90;99460.50;6123896;23;20475;-88
2022/04/21 11:23:25;;;;;;;5.50;5.00;;;;;;;17.53;37.09;99458.00;6124111;23;20081;-89
2022/04/21 11:25:51;;;;;;;6.72;4.60;;;;;;;17.56;37.51;99456.22;6122639;23;20026;-88
2022/04/21 11:28:26;;;;;;;6.50;5.32;;;;;;;17.87;37.16;99463.88;6123178;23;20314;-89
2022/04/21 11:30:57;;;;;;;5.88;4.50;;;;;;;17.86;36.59;99459.50;6098318;23;20069;-93
2022/04/21 11:33:22;;;;;;;4.70;4.30;;;;;;;17.28;37.09;99458.78;6124433;23;20041;-89
2022/04/21 11:35:48;;;;;;;6.50;5.40;;;;;;;17.38;36.73;99456.59;6121638;23;20444;-90
2022/04/21 11:38:14;;;;;;;5.45;4.80;;;;;;;17.55;37.88;99463.84;6123553;23;20018;-89
2022/04/21 11:40:40;;;;;;;5.93;5.22;;;;;;;17.88;37.55;99459.75;6124469;23;20429;-89
2022/04/21 11:43:17;;;;;;;5.63;5.10;;;;;;;17.59;37.08;99458.81;6124983;23;20002;-88
2022/04/21 11:45:54;;;;;;;5.13;4.60;;;;;;;17.69;37.82;99454.56;6123772;23;20018;-88
2022/04/21 11:48:20;;;;;;;5.45;4.78;;;;;;;17.86;38.61;99451.09;6124544;23;20014;-78
2022/04/21 11:50:47;;;;;;;6.35;5.05;;;;;;;18.30;37.29;99440.09;6121917;23;20469;-88
2022/04/21 11:53:15;;;;;;;5.03;4.03;;;;;;;18.34;35.90;99435.00;6121775;23;20014;-88
2022/04/21 11:55:41;;;;;;;4.85;4.45;;;;;;;18.21;36.25;99442.34;6122533;23;20033;-90
2022/04/21 11:58:06;;;;;;;5.05;4.53;;;;;;;17.84;35.16;99445.19;6124182;23;20336;-90
2022/04/21 12:08:46;;;;;;;4.55;4.03;;;;;;;18.28;35.06;99448.25;6122225;23;20081;-87
2022/04/21 12:11:12;;;;;;;4.53;4.07;;;;;;;18.26;34.94;99436.75;6123740;23;20697;-88
2022/04/21 12:13:38;;;;;;;4.65;3.88;;;;;;;17.30;34.72;99431.06;6122251;23;20016;-90
2022/04/21 12:16:04;;;;;;;5.13;3.80;;;;;;;17.46;36.33;99427.59;6097640;23;20002;-91
2022/04/21 12:18:46;;;;;;;5.10;3.70;;;;;;;17.92;34.80;99426.63;6121710;23;20029;-90
2022/04/21 12:21:12;;;;;;;4.30;3.67;;;;;;;18.00;34.99;99422.09;6121877;23;20017;-89
2022/04/21 12:23:37;;;;;;;5.18;4.10;;;;;;;18.24;34.64;99418.91;6123076;23;20467;-90